Time;durP1;ratioP1;P1;durP2;ratioP2;P2;SDS_P1;SDS_P2;PMS_P1;PMS_P2;Temp;Humidity;BMP_temperature;BMP_pressure;BME280_temperature;BME280_humidity;BME280_pressure;Samples;Min_cycle;Max_cycle;Signal;HPM_P1;HPM_P2
2024/01/01 00:00:36;;;;;;;8.23;3.40;;;8.30;78.20;;;;;;5005261;28;20559;-78
2024/01/01 00:03:04;;;;;;;9.40;4.77;;;8.30;78.20;;;;;;5023101;28;20980;-78
2024/01/01 00:05:32;;;;;;;8.03;4.43;;;8.30;78.20;;;;;;5000873;28;20476;-78
2024/01/01 00:08:00;;;;;;;13.70;5.03;;;8.30;78.10;;;;;;5007964;28;20464;-78
2024/01/01 00:10:30;;;;;;;10.20;5.20;;;8.30;78.10;;;;;;5006904;28;20801;-78
2024/01/01 00:12:58;;;;;;;9.33;5.07;;;8.30;78.10;;;;;;5008371;28;20550;-79
2024/01/01 00:15:26;;;;;;;8.53;4.60;;;8.30;78.10;;;;;;5023888;28;20766;-78
2024/01/01 00:17:55;;;;;;;10.53;5.33;;;8.40;78.10;;;;;;5022757;28;20459;-78
2024/01/01 00:20:23;;;;;;;11.37;4.80;;;8.30;78.00;;;;;;5004824;28;20476;-79
2024/01/01 00:22:51;;;;;;;10.53;6.10;;;8.30;78.00;;;;;;5008631;28;20867;-79
2024/01/01 00:25:19;;;;;;;29.70;6.03;;;8.30;78.10;;;;;;5008906;28;20468;-78
2024/01/01 00:27:47;;;;;;;11.17;5.00;;;8.30;78.00;;;;;;5008837;28;20460;-79
2024/01/01 00:30:17;;;;;;;9.73;4.40;;;8.30;78.10;;;;;;5017441;28;20448;-79
2024/01/01 00:32:45;;;;;;;10.07;4.67;;;8.40;78.00;;;;;;5028900;28;20487;-79
2024/01/01 00:35:15;;;;;;;12.53;6.00;;;8.40;78.00;;;;;;5009912;28;20471;-78
2024/01/01 00:37:43;;;;;;;13.57;6.13;;;8.30;77.90;;;;;;5022283;28;20523;-79
2024/01/01 00:40:11;;;;;;;10.73;5.53;;;8.40;77.90;;;;;;5026662;28;20473;-79
2024/01/01 00:42:40;;;;;;;12.73;5.90;;;8.40;77.90;;;;;;5011804;28;20469;-79
2024/01/01 00:45:09;;;;;;;11.20;5.70;;;8.40;77.90;;;;;;5007690;28;20441;-79
2024/01/01 00:47:38;;;;;;;13.03;6.30;;;8.40;77.90;;;;;;5015921;28;20460;-79
2024/01/01 00:50:07;;;;;;;8.90;4.60;;;8.40;77.80;;;;;;5007938;28;20473;-79
2024/01/01 00:52:40;;;;;;;11.83;5.53;;;8.40;77.80;;;;;;5021021;28;20450;-79
2024/01/01 00:55:08;;;;;;;12.30;6.20;;;8.40;77.80;;;;;;5014672;28;21185;-79
2024/01/01 00:57:36;;;;;;;11.93;5.30;;;8.40;77.80;;;;;;5028608;28;20478;-79
2024/01/01 01:00:06;;;;;;;13.50;6.40;;;8.40;77.80;;;;;;5024560;28;20488;-78
2024/01/01 01:02:34;;;;;;;13.37;6.53;;;8.40;77.80;;;;;;4989485;28;20552;-79
2024/01/01 01:05:02;;;;;;;14.37;7.70;;;8.40;77.80;;;;;;4990887;28;20795;-78
2024/01/01 01:07:34;;;;;;;15.23;7.90;;;8.40;77.90;;;;;;4989257;28;20526;-79
2024/01/01 01:10:05;;;;;;;15.87;7.80;;;8.40;77.80;;;;;;4989559;28;20462;-79
2024/01/01 01:12:33;;;;;;;12.43;7.30;;;8.50;77.80;;;;;;4989160;28;21287;-79
2024/01/01 01:15:01;;;;;;;14.67;7.93;;;8.50;77.80;;;;;;4991016;28;20492;-78
2024/01/01 01:17:29;;;;;;;21.20;8.00;;;8.40;77.80;;;;;;5002428;28;20460;-79
2024/01/01 01:19:57;;;;;;;15.87;8.73;;;8.50;77.90;;;;;;5008847;28;20548;-79
2024/01/01 01:22:26;;;;;;;16.40;8.73;;;8.50;77.80;;;;;;5005197;28;20488;-78
2024/01/01 01:24:54;;;;;;;17.67;10.20;;;8.50;77.80;;;;;;4997588;28;20580;-78
2024/01/01 01:27:23;;;;;;;17.90;10.50;;;8.50;77.70;;;;;;5002955;28;20500;-79
2024/01/01 01:29:51;;;;;;;18.73;9.60;;;8.50;77.80;;;;;;4990940;28;20926;-78
2024/01/01 01:32:20;;;;;;;20.53;11.27;;;8.50;77.80;;;;;;5017836;28;20470;-78
2024/01/01 01:34:48;;;;;;;17.10;10.23;;;8.50;77.90;;;;;;4991814;28;20479;-78
2024/01/01 01:37:16;;;;;;;22.93;11.67;;;8.50;77.90;;;;;;4986291;28;20800;-78
2024/01/01 01:39:45;;;;;;;20.13;11.50;;;8.50;77.80;;;;;;4993000;28;20466;-78
2024/01/01 01:42:13;;;;;;;19.83;10.90;;;8.50;77.90;;;;;;5005739;28;21214;-79
2024/01/01 01:44:43;;;;;;;24.00;13.20;;;8.50;77.90;;;;;;4993024;28;21019;-78
2024/01/01 01:47:11;;;;;;;22.57;12.50;;;8.50;77.90;;;;;;4987511;28;20492;-78
2024/01/01 01:49:40;;;;;;;25.50;12.93;;;8.50;77.90;;;;;;4989230;28;20449;-78
2024/01/01 01:52:10;;;;;;;25.07;15.50;;;8.50;77.90;;;;;;4999712;28;20468;-79
2024/01/01 01:54:38;;;;;;;24.47;13.53;;;8.40;78.00;;;;;;4993733;28;20573;-78
2024/01/01 01:57:07;;;;;;;22.77;13.67;;;8.50;78.00;;;;;;4991237;28;20465;-79
2024/01/01 01:59:35;;;;;;;28.97;15.27;;;8.50;78.00;;;;;;4998609;28;20847;-78
2024/01/01 02:02:05;;;;;;;27.97;16.20;;;8.50;78.10;;;;;;4985594;28;20489;-79
2024/01/01 02:04:34;;;;;;;26.67;15.53;;;8.50;78.10;;;;;;5008919;28;20441;-78
2024/01/01 02:07:02;;;;;;;29.17;15.70;;;8.50;78.10;;;;;;4992182;28;20997;-78
2024/01/01 02:09:31;;;;;;;23.07;14.93;;;8.50;78.20;;;;;;4998037;28;20991;-77
2024/01/01 02:11:58;;;;;;;28.60;17.77;;;8.50;78.10;;;;;;4984733;28;20461;-78
2024/01/01 02:14:26;;;;;;;34.60;18.80;;;8.50;78.10;;;;;;4992318;28;20472;-79
2024/01/01 02:16:56;;;;;;;25.40;16.60;;;8.50;78.10;;;;;;5000422;28;20461;-79
2024/01/01 02:19:28;;;;;;;30.40;18.83;;;8.50;78.20;;;;;;4992201;28;20541;-78
2024/01/01 02:21:56;;;;;;;34.00;19.27;;;8.50;78.20;;;;;;5003012;28;20978;-78
2024/01/01 02:24:25;;;;;;;31.90;19.53;;;8.50;78.20;;;;;;4991066;28;20562;-78
2024/01/01 02:26:53;;;;;;;33.33;19.77;;;8.50;78.30;;;;;;4994154;28;20795;-78
2024/01/01 02:29:22;;;;;;;34.47;20.20;;;8.50;78.30;;;;;;4986844;28;20536;-78
2024/01/01 02:31:50;;;;;;;33.33;20.40;;;8.40;78.40;;;;;;5001125;28;20484;-78
2024/01/01 02:34:18;;;;;;;35.13;20.80;;;8.50;78.40;;;;;;5005114;28;20538;-78
2024/01/01 02:36:47;;;;;;;32.17;19.37;;;8.50;78.40;;;;;;5010311;28;20480;-78
2024/01/01 02:39:15;;;;;;;30.13;18.80;;;8.50;78.40;;;;;;5004151;28;20950;-78
2024/01/01 02:41:45;;;;;;;32.17;18.83;;;8.50;78.40;;;;;;5004399;28;20515;-78
2024/01/01 02:44:13;;;;;;;35.17;20.47;;;8.50;78.40;;;;;;5001329;28;20495;-78
2024/01/01 02:46:41;;;;;;;37.20;21.00;;;8.50;78.40;;;;;;5003408;28;20456;-78
2024/01/01 02:49:09;;;;;;;31.13;19.73;;;8.50;78.40;;;;;;5004865;28;20563;-78
2024/01/01 02:51:41;;;;;;;30.10;17.80;;;8.50;78.40;;;;;;5007508;28;20452;-79
2024/01/01 02:54:09;;;;;;;36.20;19.40;;;8.50;78.50;;;;;;5011133;28;20480;-79
2024/01/01 02:56:37;;;;;;;31.40;19.60;;;8.50;78.50;;;;;;5005980;28;20566;-78
2024/01/01 02:59:07;;;;;;;27.37;17.40;;;8.50;78.50;;;;;;5004828;28;20453;-78
2024/01/01 03:01:35;;;;;;;30.17;18.80;;;8.50;78.50;;;;;;4993989;28;20477;-79
2024/01/01 03:04:05;;;;;;;32.47;20.27;;;8.50;78.50;;;;;;5004650;28;20457;-79
2024/01/01 03:06:33;;;;;;;31.53;17.87;;;8.50;78.50;;;;;;5003454;28;20496;-78
2024/01/01 03:09:01;;;;;;;27.90;17.17;;;8.40;78.50;;;;;;4989010;28;20457;-79
2024/01/01 03:11:29;;;;;;;29.57;17.50;;;8.50;78.50;;;;;;4991058;28;20455;-78
2024/01/01 03:13:57;;;;;;;30.80;18.47;;;8.50;78.60;;;;;;4996098;28;20486;-79
2024/01/01 03:16:27;;;;;;;31.83;20.53;;;8.50;78.60;;;;;;4993689;28;20456;-78
2024/01/01 03:18:54;;;;;;;33.03;20.00;;;8.50;78.60;;;;;;4987314;28;20451;-79
2024/01/01 03:21:22;;;;;;;29.13;19.20;;;8.40;78.60;;;;;;4992929;28;20491;-78
2024/01/01 03:23:50;;;;;;;34.43;19.73;;;8.50;78.70;;;;;;4992976;28;20454;-78
2024/01/01 03:26:18;;;;;;;32.40;20.33;;;8.50;78.70;;;;;;4992173;28;20470;-78
2024/01/01 03:28:47;;;;;;;33.40;19.90;;;8.50;78.70;;;;;;4991775;28;20450;-79
2024/01/01 03:31:15;;;;;;;34.10;20.10;;;8.50;78.60;;;;;;4986855;28;20477;-79
2024/01/01 03:33:45;;;;;;;35.20;22.80;;;8.50;78.60;;;;;;5000441;28;20549;-79
2024/01/01 03:36:14;;;;;;;34.63;22.43;;;8.50;78.70;;;;;;4986483;28;20573;-78
2024/01/01 03:38:42;;;;;;;44.03;22.70;;;8.50;78.70;;;;;;4993670;28;20485;-78
2024/01/01 03:41:10;;;;;;;36.80;22.10;;;8.50;78.70;;;;;;4989551;28;20512;-78
2024/01/01 03:43:38;;;;;;;35.40;23.73;;;8.50;78.70;;;;;;4987582;28;20465;-78
2024/01/01 03:46:06;;;;;;;51.47;25.37;;;8.50;78.70;;;;;;4988218;28;20473;-78
2024/01/01 03:48:35;;;;;;;36.67;23.63;;;8.50;78.80;;;;;;5005840;28;20549;-79
2024/01/01 03:51:05;;;;;;;40.97;26.57;;;8.50;78.80;;;;;;4985988;28;20446;-78
2024/01/01 03:53:33;;;;;;;41.10;26.30;;;8.50;78.80;;;;;;5003747;28;20473;-79
2024/01/01 03:56:01;;;;;;;42.13;26.80;;;8.50;78.80;;;;;;4991481;28;20632;-79
2024/01/01 03:58:29;;;;;;;42.60;26.20;;;8.50;78.80;;;;;;4993178;28;20572;-79
2024/01/01 04:00:57;;;;;;;41.60;27.07;;;8.50;78.80;;;;;;4989643;28;20473;-78
2024/01/01 04:03:25;;;;;;;45.20;26.50;;;8.50;78.90;;;;;;4995612;28;20461;-78
2024/01/01 04:05:53;;;;;;;36.40;23.50;;;8.40;78.90;;;;;;4989197;28;20449;-78
2024/01/01 04:08:25;;;;;;;42.80;25.17;;;8.40;79.00;;;;;;4996370;28;20497;-78
2024/01/01 04:10:53;;;;;;;38.53;23.60;;;8.40;79.00;;;;;;5006305;28;20461;-78
2024/01/01 04:13:21;;;;;;;34.17;21.20;;;8.40;79.10;;;;;;4994198;28;20458;-78
2024/01/01 04:15:50;;;;;;;34.23;23.20;;;8.40;79.10;;;;;;4992798;28;20548;-78
2024/01/01 04:18:18;;;;;;;31.90;22.30;;;8.40;79.10;;;;;;4990413;28;20457;-78
2024/01/01 04:20:46;;;;;;;32.60;20.73;;;8.40;79.10;;;;;;4990894;28;20461;-78
2024/01/01 04:23:14;;;;;;;34.40;21.30;;;8.40;79.10;;;;;;4991166;28;20481;-79
2024/01/01 04:25:43;;;;;;;33.27;20.73;;;8.40;79.20;;;;;;4994522;28;20449;-78
2024/01/01 04:28:11;;;;;;;31.17;18.60;;;8.40;79.20;;;;;;4988262;28;20452;-79
2024/01/01 04:30:39;;;;;;;34.70;17.43;;;8.40;79.30;;;;;;4993481;28;20470;-78
2024/01/01 04:33:07;;;;;;;30.50;17.17;;;8.40;79.30;;;;;;4991630;28;20446;-78
2024/01/01 04:35:35;;;;;;;30.10;17.30;;;8.40;79.30;;;;;;4986839;28;20485;-79
2024/01/01 04:38:04;;;;;;;26.83;17.07;;;8.40;79.40;;;;;;4988032;28;20485;-78
2024/01/01 04:40:33;;;;;;;29.30;15.30;;;8.30;79.40;;;;;;4989384;28;20476;-78
2024/01/01 04:43:04;;;;;;;26.57;13.63;;;8.30;79.40;;;;;;5003806;28;20660;-78
2024/01/01 04:45:35;;;;;;;23.07;12.67;;;8.30;79.50;;;;;;4990705;28;20727;-79
2024/01/01 04:48:03;;;;;;;20.07;10.87;;;8.30;79.50;;;;;;4992738;28;21329;-79
2024/01/01 04:50:32;;;;;;;18.50;11.00;;;8.30;79.50;;;;;;4983673;28;20552;-78
2024/01/01 04:53:00;;;;;;;19.23;9.87;;;8.40;79.50;;;;;;4987875;28;20467;-79
2024/01/01 04:55:28;;;;;;;16.37;8.40;;;8.40;79.60;;;;;;4988706;28;20813;-79
2024/01/01 04:57:56;;;;;;;15.87;7.80;;;8.30;79.60;;;;;;4990831;28;20504;-79
2024/01/01 05:00:25;;;;;;;15.70;7.33;;;8.40;79.60;;;;;;4993580;28;20852;-78
2024/01/01 05:02:55;;;;;;;18.73;7.70;;;8.40;79.70;;;;;;4989863;28;20470;-78
2024/01/01 05:05:24;;;;;;;19.70;6.93;;;8.40;79.60;;;;;;4989819;28;20489;-78
2024/01/01 05:07:53;;;;;;;12.33;5.27;;;8.40;79.70;;;;;;4990016;28;20469;-78
2024/01/01 05:10:21;;;;;;;10.83;5.10;;;8.40;79.70;;;;;;4989228;28;20462;-79
2024/01/01 05:12:49;;;;;;;12.50;4.50;;;8.40;79.60;;;;;;4992792;28;20524;-78
2024/01/01 05:15:17;;;;;;;12.17;4.83;;;8.30;79.60;;;;;;4989861;28;21257;-79
2024/01/01 05:17:46;;;;;;;13.20;3.60;;;8.30;79.80;;;;;;4994870;28;20477;-79
2024/01/01 05:20:14;;;;;;;10.53;4.50;;;8.40;79.70;;;;;;5000225;28;20512;-78
2024/01/01 05:22:42;;;;;;;9.10;3.20;;;8.40;79.70;;;;;;4993853;28;20489;-79
2024/01/01 05:25:11;;;;;;;18.50;4.40;;;8.40;79.70;;;;;;4989432;28;20468;-78
2024/01/01 05:27:39;;;;;;;10.20;3.43;;;8.40;79.60;;;;;;4989308;28;20467;-79
2024/01/01 05:30:08;;;;;;;16.03;3.83;;;8.30;79.60;;;;;;4993872;28;20964;-79
2024/01/01 05:32:36;;;;;;;15.60;4.00;;;8.30;79.60;;;;;;5027401;28;20460;-78
2024/01/01 05:35:07;;;;;;;12.23;3.97;;;8.30;79.60;;;;;;5008953;28;20461;-79
2024/01/01 05:37:35;;;;;;;8.90;3.80;;;8.30;79.60;;;;;;5022503;28;20472;-78
2024/01/01 05:40:03;;;;;;;7.53;3.70;;;8.30;79.60;;;;;;5014362;28;20457;-79
2024/01/01 05:42:32;;;;;;;11.30;4.03;;;8.30;79.80;;;;;;5010379;28;20544;-79
2024/01/01 05:45:01;;;;;;;8.20;3.50;;;8.30;79.80;;;;;;5027041;28;20536;-79
2024/01/01 05:47:30;;;;;;;8.37;3.80;;;8.30;79.80;;;;;;5008669;28;20496;-79
2024/01/01 05:50:01;;;;;;;18.63;4.30;;;8.30;79.80;;;;;;5023600;28;20456;-79
2024/01/01 05:52:31;;;;;;;16.13;4.50;;;8.30;79.80;;;;;;5010987;28;20487;-78
2024/01/01 05:54:59;;;;;;;14.90;4.43;;;8.30;79.90;;;;;;5010232;28;20945;-79
2024/01/01 05:57:27;;;;;;;16.30;4.30;;;8.30;79.90;;;;;;5005938;28;20521;-79
2024/01/01 05:59:55;;;;;;;21.57;4.50;;;8.30;79.90;;;;;;5011087;28;20452;-79
2024/01/01 06:02:25;;;;;;;11.23;3.53;;;8.20;80.00;;;;;;5016100;28;20476;-78
2024/01/01 06:04:54;;;;;;;12.43;4.67;;;8.20;80.10;;;;;;5006446;28;21206;-78
2024/01/01 06:07:22;;;;;;;12.30;4.50;;;8.30;80.10;;;;;;5007042;28;20954;-78
2024/01/01 06:09:51;;;;;;;14.90;4.47;;;8.30;80.20;;;;;;5008674;28;20467;-78
2024/01/01 06:12:19;;;;;;;12.10;4.27;;;8.30;80.20;;;;;;5024119;28;20452;-78
2024/01/01 06:14:48;;;;;;;11.40;4.00;;;8.30;80.30;;;;;;5013250;28;20515;-78
2024/01/01 06:17:16;;;;;;;16.77;4.17;;;8.30;80.40;;;;;;5003336;28;20481;-77
2024/01/01 06:19:50;;;;;;;9.50;3.80;;;8.30;80.40;;;;;;5004159;28;20495;-78
2024/01/01 06:22:20;;;;;;;14.10;4.47;;;8.30;80.40;;;;;;5013845;28;20765;-78
2024/01/01 06:24:48;;;;;;;15.30;3.80;;;8.30;80.40;;;;;;5022201;28;20456;-78
2024/01/01 06:27:17;;;;;;;12.67;4.30;;;8.30;80.40;;;;;;5004863;28;20704;-78
2024/01/01 06:29:45;;;;;;;9.87;3.50;;;8.30;80.40;;;;;;5009493;28;20460;-78
2024/01/01 06:32:13;;;;;;;14.30;4.13;;;8.30;80.50;;;;;;5022651;28;20483;-78
2024/01/01 06:34:41;;;;;;;11.93;3.97;;;8.30;80.60;;;;;;5007357;28;20467;-78
2024/01/01 06:37:09;;;;;;;10.50;4.00;;;8.30;80.60;;;;;;5008043;28;20484;-78
2024/01/01 06:39:37;;;;;;;13.40;4.30;;;8.20;80.70;;;;;;5006663;28;20464;-78
2024/01/01 06:42:05;;;;;;;8.47;2.97;;;8.20;80.60;;;;;;5006702;28;20475;-78
2024/01/01 06:44:34;;;;;;;12.03;3.20;;;8.20;80.60;;;;;;5021946;28;20459;-78
2024/01/01 06:47:03;;;;;;;9.17;2.77;;;8.10;80.70;;;;;;5006205;28;21151;-78
2024/01/01 06:49:31;;;;;;;10.10;2.63;;;8.10;80.80;;;;;;5022202;28;20493;-78
2024/01/01 06:51:59;;;;;;;9.13;2.77;;;8.00;80.80;;;;;;5003917;28;20452;-78
2024/01/01 06:54:27;;;;;;;9.47;3.00;;;8.00;80.80;;;;;;5007877;28;20461;-78
2024/01/01 06:56:55;;;;;;;7.70;2.07;;;8.00;80.90;;;;;;5007327;28;20484;-78
2024/01/01 06:59:27;;;;;;;9.83;3.23;;;8.00;81.00;;;;;;5007285;28;20475;-78
2024/01/01 07:01:58;;;;;;;11.57;2.47;;;8.10;80.90;;;;;;5007960;28;20514;-78
2024/01/01 07:04:27;;;;;;;12.23;3.70;;;8.10;80.90;;;;;;5010868;28;20478;-78
2024/01/01 07:06:56;;;;;;;12.20;3.03;;;8.10;80.90;;;;;;5012707;28;20468;-78
2024/01/01 07:09:24;;;;;;;17.43;4.03;;;8.10;80.90;;;;;;5011782;28;20452;-78
2024/01/01 07:11:56;;;;;;;12.57;3.77;;;8.10;80.90;;;;;;5007175;28;20464;-78
2024/01/01 07:14:24;;;;;;;12.93;3.40;;;8.10;81.00;;;;;;5003329;28;20460;-78
2024/01/01 07:16:53;;;;;;;13.93;3.73;;;8.20;81.00;;;;;;5010068;28;20487;-78
2024/01/01 07:19:22;;;;;;;13.10;3.37;;;8.20;80.90;;;;;;5017751;28;20541;-78
2024/01/01 07:21:50;;;;;;;10.80;3.33;;;8.20;80.90;;;;;;5008673;28;20463;-78
2024/01/01 07:24:18;;;;;;;10.43;3.60;;;8.20;80.90;;;;;;5011124;28;20468;-78
2024/01/01 07:26:47;;;;;;;15.17;3.30;;;8.20;80.90;;;;;;5004222;28;20445;-78
2024/01/01 07:29:15;;;;;;;16.87;4.27;;;8.20;80.90;;;;;;5019901;28;20528;-78
2024/01/01 07:31:43;;;;;;;11.63;2.80;;;8.20;80.90;;;;;;5024519;28;20457;-78
2024/01/01 07:34:12;;;;;;;9.23;3.00;;;8.20;80.90;;;;;;5015884;28;20488;-78
2024/01/01 07:36:43;;;;;;;5.73;2.17;;;8.10;80.90;;;;;;5006717;28;20815;-79
2024/01/01 07:39:11;;;;;;;13.23;2.83;;;8.20;81.00;;;;;;5021950;28;20540;-78
2024/01/01 07:41:39;;;;;;;15.63;3.30;;;8.20;80.90;;;;;;5011210;28;20513;-78
2024/01/01 07:44:09;;;;;;;10.80;2.83;;;8.20;80.90;;;;;;5009946;28;20815;-78
2024/01/01 07:46:37;;;;;;;8.50;2.53;;;8.20;80.90;;;;;;5007729;28;20487;-78
2024/01/01 07:49:06;;;;;;;10.50;2.97;;;8.20;80.90;;;;;;5023921;28;20480;-78
2024/01/01 07:51:35;;;;;;;10.43;3.37;;;8.20;80.90;;;;;;5008958;28;20540;-78
2024/01/01 07:54:05;;;;;;;11.27;2.47;;;8.20;80.90;;;;;;5012258;28;20453;-78
2024/01/01 07:56:36;;;;;;;16.17;3.13;;;8.20;80.80;;;;;;5020015;28;20817;-78
2024/01/01 07:59:04;;;;;;;10.30;3.00;;;8.20;80.80;;;;;;5009729;28;20540;-78
2024/01/01 08:01:32;;;;;;;14.93;2.70;;;8.20;80.80;;;;;;5010517;28;20965;-78
2024/01/01 08:04:00;;;;;;;8.57;2.50;;;8.30;80.80;;;;;;5025539;28;20458;-78
2024/01/01 08:06:28;;;;;;;9.60;2.90;;;8.30;80.80;;;;;;5007837;28;20440;-78
2024/01/01 08:08:56;;;;;;;7.63;2.07;;;8.30;80.80;;;;;;5015045;28;20476;-79
2024/01/01 08:11:26;;;;;;;14.70;2.30;;;8.30;80.80;;;;;;5023419;28;20482;-78
2024/01/01 08:13:54;;;;;;;10.80;2.50;;;8.30;80.80;;;;;;5009838;28;20463;-78
2024/01/01 08:16:22;;;;;;;8.33;1.97;;;8.30;80.70;;;;;;5012206;28;20445;-78
2024/01/01 08:18:52;;;;;;;12.30;2.77;;;8.30;80.70;;;;;;5006053;28;20500;-78
2024/01/01 08:21:21;;;;;;;10.67;2.10;;;8.30;80.60;;;;;;5019478;28;21008;-78
2024/01/01 08:23:49;;;;;;;11.07;2.30;;;8.30;80.60;;;;;;5014703;28;20521;-78
2024/01/01 08:26:23;;;;;;;13.37;2.53;;;8.30;80.60;;;;;;5014868;28;20453;-78
2024/01/01 08:28:52;;;;;;;6.97;2.10;;;8.30;80.60;;;;;;5009547;28;21012;-78
2024/01/01 08:31:21;;;;;;;10.17;2.37;;;8.30;80.50;;;;;;5016077;28;20557;-78
2024/01/01 08:33:49;;;;;;;12.80;2.57;;;8.30;80.50;;;;;;5006942;28;20461;-79
2024/01/01 08:36:19;;;;;;;10.17;2.63;;;8.30;80.50;;;;;;5028470;28;20475;-79
2024/01/01 08:38:48;;;;;;;11.87;2.30;;;8.30;80.50;;;;;;5012221;28;20492;-78
2024/01/01 08:41:16;;;;;;;13.07;3.90;;;8.30;80.40;;;;;;5008361;28;20464;-78
2024/01/01 08:43:50;;;;;;;9.33;2.20;;;8.30;80.40;;;;;;5025034;28;20462;-78
2024/01/01 08:46:22;;;;;;;10.47;2.37;;;8.40;80.30;;;;;;5010551;28;20487;-78
2024/01/01 08:48:52;;;;;;;12.83;2.07;;;8.40;80.30;;;;;;5009117;28;20782;-78
2024/01/01 08:51:20;;;;;;;12.80;2.70;;;8.40;80.20;;;;;;5008024;28;20518;-78
2024/01/01 08:53:48;;;;;;;14.70;2.30;;;8.50;80.20;;;;;;5012061;28;20456;-79
2024/01/01 08:56:16;;;;;;;10.50;2.37;;;8.50;80.10;;;;;;5009007;28;20470;-77
2024/01/01 08:58:44;;;;;;;14.80;2.60;;;8.40;80.00;;;;;;5005403;28;20488;-78
2024/01/01 09:01:13;;;;;;;19.87;3.40;;;8.50;80.00;;;;;;5008058;28;20496;-79
2024/01/01 09:03:43;;;;;;;13.47;3.10;;;8.50;80.00;;;;;;5010431;28;20452;-80
2024/01/01 09:06:11;;;;;;;16.10;3.53;;;8.50;80.00;;;;;;5005469;28;20851;-79
2024/01/01 09:08:39;;;;;;;7.70;2.50;;;8.50;79.90;;;;;;5005278;28;20569;-79
2024/01/01 09:11:07;;;;;;;11.50;2.60;;;8.50;79.80;;;;;;5007578;28;20460;-79
2024/01/01 09:13:36;;;;;;;7.73;2.33;;;8.60;79.90;;;;;;5005734;28;20540;-78
2024/01/01 09:16:05;;;;;;;12.87;2.70;;;8.60;79.80;;;;;;5005009;28;20468;-79
2024/01/01 09:18:33;;;;;;;20.67;2.53;;;8.60;79.80;;;;;;5006713;28;20477;-79
2024/01/01 09:21:05;;;;;;;15.43;3.10;;;8.60;79.80;;;;;;5017987;28;20970;-79
2024/01/01 09:23:33;;;;;;;14.63;2.50;;;8.60;79.70;;;;;;5005102;28;20449;-79
2024/01/01 09:26:01;;;;;;;16.30;2.63;;;8.60;79.60;;;;;;5009670;28;21157;-78
2024/01/01 09:28:29;;;;;;;12.50;2.60;;;8.70;79.60;;;;;;5006027;28;20506;-78
2024/01/01 09:30:57;;;;;;;13.13;2.83;;;8.70;79.60;;;;;;5002061;28;20476;-78
2024/01/01 09:33:25;;;;;;;13.70;2.73;;;8.70;79.60;;;;;;5004955;28;20617;-78
2024/01/01 09:35:55;;;;;;;12.70;3.00;;;8.70;79.50;;;;;;5007791;28;20496;-79
2024/01/01 09:38:24;;;;;;;10.93;2.00;;;8.70;79.50;;;;;;5007498;28;20883;-79
2024/01/01 09:40:55;;;;;;;13.80;3.13;;;8.70;79.40;;;;;;5002634;28;20445;-78
2024/01/01 09:43:23;;;;;;;13.87;2.33;;;8.70;79.30;;;;;;5007286;28;20528;-78
2024/01/01 09:45:51;;;;;;;17.80;2.70;;;8.70;79.30;;;;;;5024476;28;20544;-79
2024/01/01 09:48:19;;;;;;;10.63;2.40;;;8.70;79.30;;;;;;5008216;28;20475;-79
2024/01/01 09:50:50;;;;;;;13.30;2.37;;;8.70;79.20;;;;;;5006346;28;20515;-78
2024/01/01 09:53:24;;;;;;;23.10;3.53;;;8.70;79.20;;;;;;5020177;28;20811;-79
2024/01/01 09:55:55;;;;;;;14.10;2.93;;;8.70;79.10;;;;;;5006288;28;20468;-79
2024/01/01 09:58:23;;;;;;;7.17;1.73;;;8.70;79.10;;;;;;5005523;28;20481;-79
2024/01/01 10:00:51;;;;;;;9.17;2.30;;;8.70;79.00;;;;;;5003579;28;20474;-79
2024/01/01 10:03:20;;;;;;;11.77;2.53;;;8.70;79.00;;;;;;5007400;28;20460;-79
2024/01/01 10:05:49;;;;;;;8.73;2.57;;;8.70;78.90;;;;;;5008790;28;20457;-79
2024/01/01 10:08:17;;;;;;;7.57;2.00;;;8.70;78.70;;;;;;5011284;28;20460;-78
2024/01/01 10:10:47;;;;;;;16.07;2.90;;;8.80;78.70;;;;;;5001788;28;20488;-79
2024/01/01 10:13:16;;;;;;;11.30;1.90;;;8.80;78.60;;;;;;5026049;28;21051;-79
2024/01/01 10:15:45;;;;;;;11.47;2.60;;;8.80;78.60;;;;;;5006254;28;20773;-79
2024/01/01 10:18:14;;;;;;;14.60;2.63;;;8.80;78.50;;;;;;5022552;28;20480;-79
2024/01/01 10:20:44;;;;;;;9.83;2.30;;;8.80;78.30;;;;;;5025074;28;20452;-79
2024/01/01 10:23:29;;;;;;;15.23;2.37;;;8.70;78.40;;;;;;5022032;28;20467;-79
2024/01/01 10:26:06;;;;;;;14.20;2.33;;;8.80;78.40;;;;;;5005856;28;20480;-79
2024/01/01 10:28:34;;;;;;;7.73;2.20;;;8.80;78.30;;;;;;5008264;28;20465;-79
2024/01/01 10:31:03;;;;;;;9.17;2.20;;;8.80;78.30;;;;;;5007726;28;20500;-79
2024/01/01 10:33:32;;;;;;;13.80;2.20;;;8.90;78.30;;;;;;5005012;28;20483;-79
2024/01/01 10:36:02;;;;;;;11.37;2.80;;;8.90;78.10;;;;;;5006471;28;20488;-79
2024/01/01 10:38:31;;;;;;;9.70;2.37;;;8.90;77.90;;;;;;5007137;28;20561;-79
2024/01/01 10:41:00;;;;;;;47.67;3.07;;;8.90;77.90;;;;;;5024157;28;20810;-79
2024/01/01 10:43:29;;;;;;;8.17;2.43;;;8.90;77.80;;;;;;5011749;28;20456;-79
2024/01/01 10:46:03;;;;;;;14.40;2.40;;;9.00;77.90;;;;;;5008316;28;20545;-79
2024/01/01 10:48:33;;;;;;;10.67;2.50;;;9.00;77.80;;;;;;5012378;28;20462;-79
2024/01/01 10:51:11;;;;;;;10.33;2.13;;;9.00;77.50;;;;;;5026825;28;20464;-79
2024/01/01 10:54:25;;;;;;;13.30;2.00;;;9.00;77.40;;;;;;5019560;28;20496;-78
2024/01/01 10:57:07;;;;;;;10.00;2.33;;;9.00;77.30;;;;;;4967016;28;20483;-79
2024/01/01 10:59:44;;;;;;;12.73;2.07;;;9.10;77.30;;;;;;5006942;28;20483;-79
2024/01/01 11:02:16;;;;;;;10.93;1.97;;;9.10;77.30;;;;;;5006304;28;20476;-78
2024/01/01 11:04:47;;;;;;;12.57;1.90;;;9.10;77.20;;;;;;5013304;28;20495;-78
2024/01/01 11:07:16;;;;;;;11.57;2.90;;;9.10;77.10;;;;;;5006635;28;20551;-78
2024/01/01 11:09:49;;;;;;;9.90;1.67;;;9.10;77.00;;;;;;5000988;28;20456;-78
2024/01/01 11:12:35;;;;;;;11.03;1.77;;;9.20;77.00;;;;;;5004849;28;20549;-79
2024/01/01 11:15:39;;;;;;;8.73;1.70;;;9.20;77.00;;;;;;5005069;28;20479;-78
2024/01/01 11:18:15;;;;;;;16.90;2.07;;;9.20;77.00;;;;;;5006060;28;20924;-78
2024/01/01 11:20:54;;;;;;;12.23;2.47;;;9.20;77.00;;;;;;5000635;28;21000;-79
2024/01/01 11:23:39;;;;;;;10.93;2.60;;;9.20;76.90;;;;;;5021431;28;20559;-78
2024/01/01 11:26:35;;;;;;;13.20;2.93;;;9.20;76.80;;;;;;5003553;28;20928;-78
2024/01/01 11:29:06;;;;;;;8.47;2.00;;;9.30;76.70;;;;;;5020864;28;21096;-78
2024/01/01 11:31:36;;;;;;;11.57;2.30;;;9.20;76.70;;;;;;5005442;28;20476;-78
2024/01/01 11:34:06;;;;;;;13.00;2.17;;;9.20;76.50;;;;;;5005940;28;20469;-78
2024/01/01 11:36:49;;;;;;;8.67;1.90;;;9.20;76.40;;;;;;5023413;28;20983;-78
2024/01/01 11:39:21;;;;;;;8.03;2.17;;;9.20;76.20;;;;;;5019624;28;20492;-78
2024/01/01 11:41:50;;;;;;;9.53;1.90;;;9.20;76.20;;;;;;5019404;28;20564;-78
2024/01/01 11:44:18;;;;;;;12.30;2.00;;;9.20;76.20;;;;;;5023674;28;20526;-78
2024/01/01 11:46:48;;;;;;;10.53;1.93;;;9.20;76.20;;;;;;4997040;28;20457;-79
2024/01/01 11:49:17;;;;;;;23.03;2.17;;;9.20;76.20;;;;;;5001746;28;20517;-78
2024/01/01 11:51:50;;;;;;;10.33;1.93;;;9.20;76.10;;;;;;5002349;28;20473;-78
2024/01/01 11:54:18;;;;;;;8.87;1.70;;;9.20;76.00;;;;;;5001834;28;20460;-78
2024/01/01 11:56:49;;;;;;;13.93;2.40;;;9.10;76.00;;;;;;5005952;28;20464;-79
2024/01/01 11:59:18;;;;;;;16.93;2.03;;;9.20;76.00;;;;;;5004415;28;20543;-78
2024/01/01 12:01:48;;;;;;;8.77;2.13;;;9.20;75.90;;;;;;5002809;28;20961;-78
2024/01/01 12:04:21;;;;;;;10.63;2.30;;;9.20;75.90;;;;;;5022251;28;20456;-78
2024/01/01 12:06:53;;;;;;;8.13;2.20;;;9.10;75.90;;;;;;5019197;28;20453;-78
2024/01/01 12:09:32;;;;;;;8.97;2.30;;;9.10;75.90;;;;;;5012761;28;21003;-78
2024/01/01 12:12:07;;;;;;;10.27;2.27;;;9.20;75.90;;;;;;5001654;28;20465;-78
2024/01/01 12:14:50;;;;;;;10.40;1.97;;;9.20;75.80;;;;;;5000767;28;20454;-78
2024/01/01 12:17:56;;;;;;;8.27;2.27;;;9.20;75.80;;;;;;5009225;28;20468;-78
2024/01/01 12:20:37;;;;;;;15.70;2.77;;;9.20;75.90;;;;;;5003129;28;20516;-78
2024/01/01 12:23:21;;;;;;;8.33;2.20;;;9.20;75.90;;;;;;5005556;28;20964;-78
2024/01/01 12:26:04;;;;;;;9.23;2.03;;;9.30;75.90;;;;;;5019652;28;20498;-78
2024/01/01 12:28:41;;;;;;;13.10;2.60;;;9.30;75.80;;;;;;5006903;28;20913;-78
2024/01/01 12:31:14;;;;;;;8.73;2.17;;;9.30;75.80;;;;;;5013126;28;20534;-78
2024/01/01 12:33:57;;;;;;;8.80;2.23;;;9.30;75.90;;;;;;5019541;28;20463;-78
2024/01/01 12:36:34;;;;;;;9.03;1.83;;;9.30;75.80;;;;;;5025300;28;20518;-78
2024/01/01 12:39:10;;;;;;;14.63;3.17;;;9.30;75.70;;;;;;5005939;28;20449;-79
2024/01/01 12:41:45;;;;;;;8.40;2.00;;;9.30;75.60;;;;;;5006797;28;20551;-79
2024/01/01 12:44:36;;;;;;;10.60;2.20;;;9.30;75.60;;;;;;5011553;28;20469;-78
2024/01/01 12:47:15;;;;;;;7.43;1.53;;;9.30;75.50;;;;;;4991546;28;20560;-78
2024/01/01 12:50:07;;;;;;;10.33;2.03;;;9.30;75.50;;;;;;5008309;28;20794;-78
2024/01/01 12:52:58;;;;;;;8.73;2.20;;;9.30;75.50;;;;;;5005188;28;20535;-79
2024/01/01 12:55:43;;;;;;;9.87;2.07;;;9.30;75.50;;;;;;5010898;28;20456;-79
2024/01/01 12:58:12;;;;;;;15.20;2.40;;;9.30;75.50;;;;;;5022809;28;20480;-78
2024/01/01 13:00:50;;;;;;;10.20;2.40;;;9.30;75.50;;;;;;5004848;28;20489;-78